• Join FlightAware (Why Join?)
  • Login
  • US Flag 
08:33PM EDT


 

Airport Tracker/Info


-or-


 

Live Flight TrackerFlight Track Log ✈ MTN8324 ✈ 01-May-2013 ✈ KEWR - KBUF

Flight Track Log - Related Links

Times and Time Zones

All times are in EDT time to prevent confusion due to time zone crossing. See the MTN8324 flight status page for this flight to view local times or setup timezone preferences in your user account.

Time Position Orientation Groundspeed Altitude Reporting Facility
EDT Latitude Longitude Course Direction KTS MPH feet Rate Location/Type
04:43AM 40.7167 -74.1333 342° North 148 170 2,000  Level New York TRACON
04:44AM 40.7667 -74.1333 360° North 178 205 3,500 1,500 Climbing New York TRACON
04:45AM 40.8167 -74.1667 333° Northwest 187 215 5,100 1,560 Climbing New York TRACON
04:46AM 40.8667 -74.1833 346° North 196 226 6,700 1,560 Climbing New York TRACON
04:47AM 40.9167 -74.2167 333° Northwest 192 221 8,300 1,440 Climbing New York TRACON
04:49AM 41.1487 -74.3790 342° North  Level FlightAware Approximate
04:49AM 40.9806 -74.2756 325° Northwest 194 223 10,400  Level New York Center
04:50AM 41.0294 -74.3111 331° Northwest 194 223 11,500 780 Climbing New York Center
04:51AM 41.0825 -74.3494 331° Northwest 207 238 12,000 240 Climbing New York Center
04:52AM 41.1372 -74.3911 330° Northwest 231 266 12,000  Level New York Center
04:53AM 41.2108 -74.4419 333° Northwest 255 293 12,000  Level New York Center
04:54AM 41.2697 -74.4864 330° Northwest 268 308 12,000  Level New York Center
04:55AM 41.3450 -74.5431 331° Northwest 273 314 12,000 420 Level New York Center
04:56AM 41.4019 -74.5850 331° Northwest 273 314 12,900 1,080 Climbing New York Center
04:57AM 41.4453 -74.6622 307° West 243 280 14,200 1,200 Climbing New York Center
04:58AM 41.4764 -74.7250 303° West 237 273 15,300 900 Climbing New York Center
04:59AM 41.5136 -74.7964 305° West 220 253 16,000 300 Climbing New York Center
05:00AM 41.5489 -74.8650 305° West 226 260 16,000  Level New York Center
05:01AM 41.5875 -74.9506 301° West 261 300 16,000  Level New York Center
05:02AM 41.6322 -75.0394 304° West 267 307 16,000  Level New York Center
05:03AM 41.6728 -75.1253 302° West 272 313 16,000  Level New York Center
05:04AM 41.7133 -75.2114 302° West 272 313 16,000  Level New York Center
05:05AM 41.7500 -75.2889 302° West 272 313 16,000  Level New York Center
05:06AM 41.7906 -75.3722 303° West 272 313 16,000  Level New York Center
05:07AM 41.8369 -75.4644 304° West 272 313 16,000  Level New York Center
05:08AM 41.8772 -75.5508 302° West 272 313 16,000  Level New York Center
05:09AM 41.9158 -75.6261 305° West 272 313 16,000  Level New York Center
05:10AM 41.9597 -75.7186 303° West 272 313 16,000  Level New York Center
05:11AM 41.9978 -75.8053 301° West 272 313 16,000  Level New York Center
05:12AM 42.0361 -75.8836 303° West 277 319 16,000  Level New York Center
05:13AM 42.0819 -75.9764 304° West 277 319 16,000  Level New York Center
05:14AM 42.1219 -76.0636 302° West 277 319 16,000  Level New York Center
05:15AM 42.1619 -76.1450 304° West 277 319 16,000  Level New York Center
05:16AM 42.1975 -76.2347 298° West 272 313 16,000  Level New York Center
05:17AM 42.2372 -76.3192 302° West 272 313 16,000  Level New York Center
05:18AM 42.2728 -76.4064 299° West 272 313 16,000  Level New York Center
05:19AM 42.3103 -76.4908 301° West 267 307 16,000  Level New York Center
05:20AM 42.3353 -76.5464 301° West 264 304 16,000  Level Cleveland Center
05:21AM 42.3717 -76.6311 300° West 264 304 16,000  Level Cleveland Center
05:22AM 42.4078 -76.7161 300° West 264 304 16,000  Level Cleveland Center
05:23AM 42.4442 -76.8011 300° West 264 304 16,000  Level Cleveland Center
05:24AM 42.4825 -76.8919 300° West 264 304 16,000  Level Cleveland Center
05:25AM 42.5183 -76.9744 301° West 264 304 16,000 -300 Level Cleveland Center
05:26AM 42.5444 -77.0714 290° West 264 304 15,400 -720 Descending Cleveland Center
05:27AM 42.5683 -77.1744 288° West 278 320 14,600 -720 Descending Cleveland Center
05:28AM 42.5942 -77.2775 289° West 285 328 14,000 -600 Descending Cleveland Center
05:29AM 42.6181 -77.3806 288° West 285 328 13,500 -600 Descending Cleveland Center
05:30AM 42.6439 -77.4922 287° West 285 328 12,800 -720 Descending Cleveland Center
05:31AM 42.6694 -77.5928 289° West 285 328 12,100 -420 Descending Cleveland Center
05:32AM 42.6925 -77.6706 292° West 285 328 12,000 -60 Descending Cleveland Center
05:33AM 42.7183 -77.7883 287° West 279 321 12,000  Level Cleveland Center
05:34AM 42.7414 -77.8833 288° West 279 321 12,000  Level Cleveland Center
05:35AM 42.7644 -77.9814 288° West 279 321 12,000 -540 Level Cleveland Center
05:36AM 42.7894 -78.0794 289° West 279 321 11,000 -780 Descending Cleveland Center
05:37AM 42.8125 -78.1747 288° West 279 321 10,500 -1,260 Descending Cleveland Center
05:38AM 42.8353 -78.2758 287° West 281 323 8,500 -1,980 Descending Cleveland Center
05:39AM 42.8578 -78.3656 289° West 267 307 6,600 -1,980 Descending Cleveland Center
05:40AM 42.8867 -78.4522 294° West 253 291 4,600 -1,320 Descending Cleveland Center
05:41AM 42.9272 -78.5106 314° West 236 272 4,000 -780 Descending Cleveland Center
05:42AM 42.9658 -78.5772 308° West 236 272 3,100 -1,020 Descending Cleveland Center
05:43AM 42.9983 -78.6444 303° West 202 232 2,000 -780 Descending Cleveland Center
05:43AM 42.9833 -78.6667 227° Southwest 114 131 1,700 -480 Descending Buffalo TRACON
05:44AM 42.9667 -78.7000 236° Southwest 95 109 1,200 -540 Descending Buffalo TRACON
05:46AM 42.9333 -78.7167 289° West  Level FlightAware Approximate
05:53AM 42.9404 -78.7306 289° West  Level Estimated
05:54AM 42.9404 -78.7306 289° West  Level Estimated